Filia Ariea — PIET — position and weather

sailwx.info

Track history (hours):
 
Tides and Currents Weather Stations Pressure Air Temp Water Temp Dewpoint Dewpoint Depression Visibility Wind Speed Wind Dir Waves Ship Positions

Filia Ariea

Last reported at 2016-May-30 19:08 UTC. Time now 2016-May-31 14:20 UTC.
Position N 53°34' W 006°01'.

Length 90 m; draft 3.2 m.

Type: Ship. MMSI: 244662000.

Date/timePositionNaut miles runAvg speedWind from/ knotsBaromVisibWave heightAir tempDewpointWater temp
2016-May-30 19:08N 53°34' W 006°01'712.1
2016-May-30 18:33N 53°40' W 006°07'5 0.3
2016-May-30 04:33N 53°44' W 006°11'8 6.4
2016-May-30 03:17N 53°37' W 006°03'177 4.1
2016-May-28 08:12N 50°40' W 005°51'1111.9
2016-May-28 07:18N 50°29' W 005°51'912.2
2016-May-28 06:32N 50°20' W 005°51'1312.5
2016-May-28 05:29N 50°07' W 005°51'9 9.8
2016-May-28 04:33N 49°59' W 005°44'1212.1
2016-May-28 03:33N 49°57' W 005°25'1312.5
2016-May-28 02:31N 49°55' W 005°05'1212.3
2016-May-28 01:33N 49°58' W 004°47'1211.7
2016-May-28 00:33N 50°00' W 004°29'1211.2
2016-May-27 23:30N 50°02' W 004°11'1010.8
2016-May-27 22:33N 50°04' W 003°55'1010.3
2016-May-27 21:33N 50°07' W 003°40'1110.6
2016-May-27 20:33N 50°08' W 003°23'1111.2
2016-May-27 19:33N 50°11' W 003°06'1212.1
2016-May-27 18:33N 50°13' W 002°48'6612.8
2016-May-27 13:23N 50°24' W 001°06'8 9.5
2016-May-27 12:31N 50°26' W 000°53'9 9.0
2016-May-27 11:33N 50°27' W 000°40'10 9.5
2016-May-27 10:33N 50°28' W 000°25'1111.1
2016-May-27 09:33N 50°30' W 000°07'1211.8
2016-May-27 08:33N 50°35' E 000°09'1412.9
2016-May-27 07:30N 50°38' E 000°30'2612.3
2016-May-27 05:25N 50°51' E 001°06'1011.0
2016-May-27 04:33N 50°56' E 001°18'10 9.7
2016-May-27 03:33N 51°02' E 001°30'8 8.0
2016-May-27 02:33N 51°06' E 001°41'9 9.0
2016-May-27 01:33N 51°05' E 001°56'1110.7
2016-May-27 00:33N 51°08' E 002°12'1212.3
2016-May-26 23:33N 51°15' E 002°28'1212.1
2016-May-26 22:33N 51°22' E 002°45'1312.7
2016-May-26 21:33N 51°22' E 003°05'5 4.2
2016-May-26 20:15N 51°20' E 003°13'1 1.8
2016-May-26 19:33N 51°19' E 003°13'4 4.2
2016-May-26 18:33N 51°15' E 003°13'1 0.8
2016-May-26 17:31N 51°14' E 003°13'0 0.0
2016-May-26 16:30N 51°14' E 003°13'0 0.0
2016-May-26 15:27N 51°14' E 003°13'0 0.0
2016-May-26 14:33N 51°14' E 003°13'0 0.0
2016-May-26 13:20N 51°14' E 003°13'0 0.0
2016-May-26 12:32N 51°14' E 003°13'0 0.0
2016-May-26 11:32N 51°14' E 003°13'0 0.0
2016-May-26 10:28N 51°14' E 003°13'0 0.0
2016-May-26 09:28N 51°14' E 003°13'0 0.0
2016-May-26 06:08N 51°14' E 003°13'0 0.0
2016-May-26 03:25N 51°14' E 003°13'0 0.0
2016-May-26 02:31N 51°14' E 003°13'0 0.0
2016-May-26 01:24N 51°14' E 003°13'0 0.0
2016-May-26 00:30N 51°14' E 003°13'0 0.0
2016-May-25 23:29N 51°14' E 003°13'0 0.0
2016-May-25 22:23N 51°14' E 003°13'0 0.0
2016-May-25 21:32N 51°14' E 003°13'0 0.0
2016-May-25 20:28N 51°14' E 003°13'0 0.0
2016-May-25 19:25N 51°14' E 003°13'0 0.0
2016-May-25 18:33N 51°14' E 003°13'0 0.0
2016-May-25 17:30N 51°14' E 003°13'0 0.0
2016-May-25 16:29N 51°14' E 003°13'0 0.0
2016-May-25 15:29N 51°14' E 003°13'0 0.0
2016-May-25 13:22N 51°14' E 003°13'0 0.0
2016-May-25 12:25N 51°14' E 003°13'0 0.0
2016-May-25 11:33N 51°14' E 003°13'0 0.0
2016-May-25 08:32N 51°14' E 003°13'0 0.5
2016-May-25 07:33N 51°14' E 003°13'5 5.3
2016-May-25 06:32N 51°20' E 003°12'1 1.0
2016-May-25 05:34N 51°20' E 003°12'10 9.9
2016-May-25 04:33N 51°22' E 002°56'47 6.5
2016-May-24 21:17N 52°03' E 003°32'911.9
2016-May-24 20:34N 52°05' E 003°46'1110.9
2016-May-24 19:33N 52°07' E 004°03'10 9.7
2016-May-24 18:33N 52°14' E 004°13'10 9.6
2016-May-24 17:33N 52°22' E 004°22'9 8.6
2016-May-24 16:34N 52°28' E 004°33'3 2.7
2016-May-24 15:33N 52°28' E 004°37'8 8.1
2016-May-24 14:34N 52°25' E 004°49'1 0.8
2016-May-24 13:33N 52°25' E 004°51'0 0.0
2016-May-24 12:32N 52°25' E 004°51'0 0.0
2016-May-24 11:31N 52°25' E 004°51'0 0.0
2016-May-24 10:28N 52°25' E 004°51'0 0.0
2016-May-24 09:33N 52°25' E 004°51'0 0.0
2016-May-24 08:33N 52°25' E 004°51'0 0.0
2016-May-24 07:25N 52°25' E 004°51'0 0.0
2016-May-24 06:31N 52°25' E 004°51'0 0.0
2016-May-24 05:33N 52°25' E 004°51'0 0.0
2016-May-24 04:33N 52°25' E 004°51'0 0.0
2016-May-24 03:32N 52°25' E 004°51'0 0.0
2016-May-24 02:32N 52°25' E 004°51'0 0.0
2016-May-24 01:33N 52°25' E 004°51'0 0.0
2016-May-24 00:31N 52°25' E 004°51'0 0.0
2016-May-23 23:31N 52°25' E 004°51'0 0.0
2016-May-23 22:33N 52°25' E 004°51'0 0.0
2016-May-23 21:33N 52°25' E 004°51'0 0.0
2016-May-23 20:29N 52°25' E 004°51'0 0.0
2016-May-23 19:32N 52°25' E 004°51'0 0.0
2016-May-23 18:31N 52°25' E 004°51'0 0.0
2016-May-23 17:31N 52°25' E 004°51'0 0.0
2016-May-23 16:31N 52°25' E 004°51'0 0.0
2016-May-23 15:33N 52°25' E 004°51'0 0.0
2016-May-23 14:33N 52°25' E 004°51'0 0.0
2016-May-23 13:32N 52°25' E 004°51'0 0.0
2016-May-23 12:32N 52°25' E 004°51'0 0.0
2016-May-23 11:32N 52°25' E 004°51'0 0.0
2016-May-23 10:26N 52°25' E 004°51'0 0.0
2016-May-23 09:32N 52°25' E 004°51'0 0.0
2016-May-23 08:31N 52°25' E 004°51'0 0.0
2016-May-23 07:33N 52°25' E 004°51'0 0.1
2016-May-23 06:34N 52°25' E 004°51'0 0.0
2016-May-23 05:33N 52°25' E 004°51'0 0.0
2016-May-23 04:34N 52°25' E 004°51'0 0.0
2016-May-23 03:33N 52°25' E 004°51'0 0.0
2016-May-23 02:34N 52°25' E 004°51'0 0.0
2016-May-23 01:34N 52°25' E 004°51'0 0.0
2016-May-23 00:33N 52°25' E 004°51'0 0.0
2016-May-22 23:34N 52°25' E 004°51'0 0.0
2016-May-22 22:34N 52°25' E 004°51'0 0.0
2016-May-22 21:33N 52°25' E 004°51'0 0.0
2016-May-22 20:33N 52°25' E 004°51'0 0.0
2016-May-22 19:34N 52°25' E 004°51'0 0.0
2016-May-22 18:33N 52°25' E 004°51'0 0.0
2016-May-22 17:34N 52°25' E 004°51'0 0.0
2016-May-22 16:34N 52°25' E 004°51'0 0.0
2016-May-22 15:33N 52°25' E 004°51'0 0.0
2016-May-22 14:34N 52°25' E 004°51'0 0.0
2016-May-22 13:34N 52°25' E 004°51'0 0.0
2016-May-22 12:34N 52°25' E 004°51'0 0.0
2016-May-22 11:34N 52°25' E 004°51'0 0.0
2016-May-22 10:34N 52°25' E 004°51'0 0.0
2016-May-22 09:34N 52°25' E 004°51'0 0.0
2016-May-22 08:34N 52°25' E 004°51'0 0.0
2016-May-22 07:34N 52°25' E 004°51'0 0.0
2016-May-22 06:34N 52°25' E 004°51'0 0.0
2016-May-22 05:34N 52°25' E 004°51'0 0.0
2016-May-22 04:34N 52°25' E 004°51'0 0.0
2016-May-22 03:33N 52°25' E 004°51'0 0.0
2016-May-22 02:34N 52°25' E 004°51'0 0.0
2016-May-22 01:33N 52°25' E 004°51'0 0.0
2016-May-22 00:34N 52°25' E 004°51'0 0.0
2016-May-21 23:34N 52°25' E 004°51'0 0.0
2016-May-21 22:34N 52°25' E 004°51'0 0.0
2016-May-21 21:34N 52°25' E 004°51'0 0.0
2016-May-21 20:33N 52°25' E 004°51'0 0.0
2016-May-21 19:34N 52°25' E 004°51'0 0.0
2016-May-21 18:34N 52°25' E 004°51'0 0.0
2016-May-21 17:34N 52°25' E 004°51'0 0.0
2016-May-21 16:34N 52°25' E 004°51'0 0.0
2016-May-21 15:33N 52°25' E 004°51'0 0.0
2016-May-21 14:34N 52°25' E 004°51'0 0.0
2016-May-21 13:34N 52°25' E 004°51'0 0.0
2016-May-21 12:33N 52°25' E 004°51'0 0.0
2016-May-21 11:34N 52°25' E 004°51'0 0.0
2016-May-21 10:34N 52°25' E 004°51'0 0.0
2016-May-21 09:34N 52°25' E 004°51'0 0.0
2016-May-21 08:34N 52°25' E 004°51'0 0.0
2016-May-21 07:33N 52°25' E 004°51'0 0.0
2016-May-21 06:34N 52°25' E 004°51'0 0.0
2016-May-21 05:33N 52°25' E 004°51'0 0.0
2016-May-21 04:33N 52°25' E 004°51'0 0.0
2016-May-21 03:34N 52°25' E 004°51'0 0.0
2016-May-21 02:33N 52°25' E 004°51'0 0.0
2016-May-21 01:33N 52°25' E 004°51'0 0.0
2016-May-21 00:33N 52°25' E 004°51'0 0.0
2016-May-20 23:34N 52°25' E 004°51'0 0.0
2016-May-20 22:33N 52°25' E 004°51'0 0.0
2016-May-20 21:34N 52°25' E 004°51'0 0.0
2016-May-20 20:34N 52°25' E 004°51'0 0.0
2016-May-20 19:34N 52°25' E 004°51'  
Track history (hours):
 
Tides and Currents Weather Stations Pressure Air Temp Water Temp Dewpoint Dewpoint Depression Visibility Wind Speed Wind Dir Waves Ship Positions

Filia Ariea

Last reported at 2016-May-30 19:08 UTC. Time now 2016-May-31 14:20 UTC.
Position N 53°34' W 006°01'.

Length 90 m; draft 3.2 m.

Type: Ship. MMSI: 244662000.

Date/timePositionNaut miles runAvg speedWind from/ knotsBaromVisibWave heightAir tempDewpointWater temp
2016-May-30 19:08N 53°34' W 006°01'712.1
2016-May-30 18:33N 53°40' W 006°07'5 0.3
2016-May-30 04:33N 53°44' W 006°11'8 6.4
2016-May-30 03:17N 53°37' W 006°03'177 4.1
2016-May-28 08:12N 50°40' W 005°51'1111.9
2016-May-28 07:18N 50°29' W 005°51'912.2
2016-May-28 06:32N 50°20' W 005°51'1312.5
2016-May-28 05:29N 50°07' W 005°51'9 9.8
2016-May-28 04:33N 49°59' W 005°44'1212.1
2016-May-28 03:33N 49°57' W 005°25'1312.5
2016-May-28 02:31N 49°55' W 005°05'1212.3
2016-May-28 01:33N 49°58' W 004°47'1211.7
2016-May-28 00:33N 50°00' W 004°29'1211.2
2016-May-27 23:30N 50°02' W 004°11'1010.8
2016-May-27 22:33N 50°04' W 003°55'1010.3
2016-May-27 21:33N 50°07' W 003°40'1110.6
2016-May-27 20:33N 50°08' W 003°23'1111.2
2016-May-27 19:33N 50°11' W 003°06'1212.1
2016-May-27 18:33N 50°13' W 002°48'6612.8
2016-May-27 13:23N 50°24' W 001°06'8 9.5
2016-May-27 12:31N 50°26' W 000°53'9 9.0
2016-May-27 11:33N 50°27' W 000°40'10 9.5
2016-May-27 10:33N 50°28' W 000°25'1111.1
2016-May-27 09:33N 50°30' W 000°07'1211.8
2016-May-27 08:33N 50°35' E 000°09'1412.9
2016-May-27 07:30N 50°38' E 000°30'2612.3
2016-May-27 05:25N 50°51' E 001°06'1011.0
2016-May-27 04:33N 50°56' E 001°18'10 9.7
2016-May-27 03:33N 51°02' E 001°30'8 8.0
2016-May-27 02:33N 51°06' E 001°41'9 9.0
2016-May-27 01:33N 51°05' E 001°56'1110.7
2016-May-27 00:33N 51°08' E 002°12'1212.3
2016-May-26 23:33N 51°15' E 002°28'1212.1
2016-May-26 22:33N 51°22' E 002°45'1312.7
2016-May-26 21:33N 51°22' E 003°05'5 4.2
2016-May-26 20:15N 51°20' E 003°13'1 1.8
2016-May-26 19:33N 51°19' E 003°13'4 4.2
2016-May-26 18:33N 51°15' E 003°13'1 0.8
2016-May-26 17:31N 51°14' E 003°13'0 0.0
2016-May-26 16:30N 51°14' E 003°13'0 0.0
2016-May-26 15:27N 51°14' E 003°13'0 0.0
2016-May-26 14:33N 51°14' E 003°13'0 0.0
2016-May-26 13:20N 51°14' E 003°13'0 0.0
2016-May-26 12:32N 51°14' E 003°13'0 0.0
2016-May-26 11:32N 51°14' E 003°13'0 0.0
2016-May-26 10:28N 51°14' E 003°13'0 0.0
2016-May-26 09:28N 51°14' E 003°13'0 0.0
2016-May-26 06:08N 51°14' E 003°13'0 0.0
2016-May-26 03:25N 51°14' E 003°13'0 0.0
2016-May-26 02:31N 51°14' E 003°13'0 0.0
2016-May-26 01:24N 51°14' E 003°13'0 0.0
2016-May-26 00:30N 51°14' E 003°13'0 0.0
2016-May-25 23:29N 51°14' E 003°13'0 0.0
2016-May-25 22:23N 51°14' E 003°13'0 0.0
2016-May-25 21:32N 51°14' E 003°13'0 0.0
2016-May-25 20:28N 51°14' E 003°13'0 0.0
2016-May-25 19:25N 51°14' E 003°13'0 0.0
2016-May-25 18:33N 51°14' E 003°13'0 0.0
2016-May-25 17:30N 51°14' E 003°13'0 0.0
2016-May-25 16:29N 51°14' E 003°13'0 0.0
2016-May-25 15:29N 51°14' E 003°13'0 0.0
2016-May-25 13:22N 51°14' E 003°13'0 0.0
2016-May-25 12:25N 51°14' E 003°13'0 0.0
2016-May-25 11:33N 51°14' E 003°13'0 0.0
2016-May-25 08:32N 51°14' E 003°13'0 0.5
2016-May-25 07:33N 51°14' E 003°13'5 5.3
2016-May-25 06:32N 51°20' E 003°12'1 1.0
2016-May-25 05:34N 51°20' E 003°12'10 9.9
2016-May-25 04:33N 51°22' E 002°56'47 6.5
2016-May-24 21:17N 52°03' E 003°32'911.9
2016-May-24 20:34N 52°05' E 003°46'1110.9
2016-May-24 19:33N 52°07' E 004°03'10 9.7
2016-May-24 18:33N 52°14' E 004°13'10 9.6
2016-May-24 17:33N 52°22' E 004°22'9 8.6
2016-May-24 16:34N 52°28' E 004°33'3 2.7
2016-May-24 15:33N 52°28' E 004°37'8 8.1
2016-May-24 14:34N 52°25' E 004°49'1 0.8
2016-May-24 13:33N 52°25' E 004°51'0 0.0
2016-May-24 12:32N 52°25' E 004°51'0 0.0
2016-May-24 11:31N 52°25' E 004°51'0 0.0
2016-May-24 10:28N 52°25' E 004°51'0 0.0
2016-May-24 09:33N 52°25' E 004°51'0 0.0
2016-May-24 08:33N 52°25' E 004°51'0 0.0
2016-May-24 07:25N 52°25' E 004°51'0 0.0
2016-May-24 06:31N 52°25' E 004°51'0 0.0
2016-May-24 05:33N 52°25' E 004°51'0 0.0
2016-May-24 04:33N 52°25' E 004°51'0 0.0
2016-May-24 03:32N 52°25' E 004°51'0 0.0
2016-May-24 02:32N 52°25' E 004°51'0 0.0
2016-May-24 01:33N 52°25' E 004°51'0 0.0
2016-May-24 00:31N 52°25' E 004°51'0 0.0
2016-May-23 23:31N 52°25' E 004°51'0 0.0
2016-May-23 22:33N 52°25' E 004°51'0 0.0
2016-May-23 21:33N 52°25' E 004°51'0 0.0
2016-May-23 20:29N 52°25' E 004°51'0 0.0
2016-May-23 19:32N 52°25' E 004°51'0 0.0
2016-May-23 18:31N 52°25' E 004°51'0 0.0
2016-May-23 17:31N 52°25' E 004°51'0 0.0
2016-May-23 16:31N 52°25' E 004°51'0 0.0
2016-May-23 15:33N 52°25' E 004°51'0 0.0
2016-May-23 14:33N 52°25' E 004°51'0 0.0
2016-May-23 13:32N 52°25' E 004°51'0 0.0
2016-May-23 12:32N 52°25' E 004°51'0 0.0
2016-May-23 11:32N 52°25' E 004°51'0 0.0
2016-May-23 10:26N 52°25' E 004°51'0 0.0
2016-May-23 09:32N 52°25' E 004°51'0 0.0
2016-May-23 08:31N 52°25' E 004°51'0 0.0
2016-May-23 07:33N 52°25' E 004°51'0 0.1
2016-May-23 06:34N 52°25' E 004°51'0 0.0
2016-May-23 05:33N 52°25' E 004°51'0 0.0
2016-May-23 04:34N 52°25' E 004°51'0 0.0
2016-May-23 03:33N 52°25' E 004°51'0 0.0
2016-May-23 02:34N 52°25' E 004°51'0 0.0
2016-May-23 01:34N 52°25' E 004°51'0 0.0
2016-May-23 00:33N 52°25' E 004°51'0 0.0
2016-May-22 23:34N 52°25' E 004°51'0 0.0
2016-May-22 22:34N 52°25' E 004°51'0 0.0
2016-May-22 21:33N 52°25' E 004°51'0 0.0
2016-May-22 20:33N 52°25' E 004°51'0 0.0
2016-May-22 19:34N 52°25' E 004°51'0 0.0
2016-May-22 18:33N 52°25' E 004°51'0 0.0
2016-May-22 17:34N 52°25' E 004°51'0 0.0
2016-May-22 16:34N 52°25' E 004°51'0 0.0
2016-May-22 15:33N 52°25' E 004°51'0 0.0
2016-May-22 14:34N 52°25' E 004°51'0 0.0
2016-May-22 13:34N 52°25' E 004°51'0 0.0
2016-May-22 12:34N 52°25' E 004°51'0 0.0
2016-May-22 11:34N 52°25' E 004°51'0 0.0
2016-May-22 10:34N 52°25' E 004°51'0 0.0
2016-May-22 09:34N 52°25' E 004°51'0 0.0
2016-May-22 08:34N 52°25' E 004°51'0 0.0
2016-May-22 07:34N 52°25' E 004°51'0 0.0
2016-May-22 06:34N 52°25' E 004°51'0 0.0
2016-May-22 05:34N 52°25' E 004°51'0 0.0
2016-May-22 04:34N 52°25' E 004°51'0 0.0
2016-May-22 03:33N 52°25' E 004°51'0 0.0
2016-May-22 02:34N 52°25' E 004°51'0 0.0
2016-May-22 01:33N 52°25' E 004°51'0 0.0
2016-May-22 00:34N 52°25' E 004°51'0 0.0
2016-May-21 23:34N 52°25' E 004°51'0 0.0
2016-May-21 22:34N 52°25' E 004°51'0 0.0
2016-May-21 21:34N 52°25' E 004°51'0 0.0
2016-May-21 20:33N 52°25' E 004°51'0 0.0
2016-May-21 19:34N 52°25' E 004°51'0 0.0
2016-May-21 18:34N 52°25' E 004°51'0 0.0
2016-May-21 17:34N 52°25' E 004°51'0 0.0
2016-May-21 16:34N 52°25' E 004°51'0 0.0
2016-May-21 15:33N 52°25' E 004°51'0 0.0
2016-May-21 14:34N 52°25' E 004°51'0 0.0
2016-May-21 13:34N 52°25' E 004°51'0 0.0
2016-May-21 12:33N 52°25' E 004°51'0 0.0
2016-May-21 11:34N 52°25' E 004°51'0 0.0
2016-May-21 10:34N 52°25' E 004°51'0 0.0
2016-May-21 09:34N 52°25' E 004°51'0 0.0
2016-May-21 08:34N 52°25' E 004°51'0 0.0
2016-May-21 07:33N 52°25' E 004°51'0 0.0
2016-May-21 06:34N 52°25' E 004°51'0 0.0
2016-May-21 05:33N 52°25' E 004°51'0 0.0
2016-May-21 04:33N 52°25' E 004°51'0 0.0
2016-May-21 03:34N 52°25' E 004°51'0 0.0
2016-May-21 02:33N 52°25' E 004°51'0 0.0
2016-May-21 01:33N 52°25' E 004°51'0 0.0
2016-May-21 00:33N 52°25' E 004°51'0 0.0
2016-May-20 23:34N 52°25' E 004°51'0 0.0
2016-May-20 22:33N 52°25' E 004°51'0 0.0
2016-May-20 21:34N 52°25' E 004°51'0 0.0
2016-May-20 20:34N 52°25' E 004°51'0 0.0
2016-May-20 19:34N 52°25' E 004°51'  

Dump ship's entire track history